Time;durP1;ratioP1;P1;durP2;ratioP2;P2;SDS_P1;SDS_P2;PMS_P1;PMS_P2;Temp;Humidity;BMP_temperature;BMP_pressure;BME280_temperature;BME280_humidity;BME280_pressure;Samples;Min_cycle;Max_cycle;Signal;HPM_P1;HPM_P2
2023/01/28 00:03:17;;;;;;;4.10;2.00;;;;;;;3.52;100.00;100592.28;12229224;19;20885;-84
2023/01/28 00:07:19;;;;;;;4.10;1.80;;;;;;;3.57;100.00;100591.69;12229985;19;20011;-82
2023/01/28 00:11:21;;;;;;;5.10;2.40;;;;;;;3.52;100.00;100592.28;12204372;19;20027;-81
2023/01/28 00:15:24;;;;;;;4.43;2.30;;;;;;;3.51;100.00;100589.72;12182435;19;20251;-81
2023/01/28 00:19:25;;;;;;;;;;;;;;;3.44;100.00;100584.16;12211222;19;20248;-83
2023/01/28 00:23:29;;;;;;;3.75;2.00;;;;;;;3.47;100.00;100589.25;12229510;19;19915;-84
2023/01/28 00:27:31;;;;;;;5.22;2.40;;;;;;;3.45;100.00;100582.28;12193595;19;20011;-84
2023/01/28 00:31:34;;;;;;;4.75;2.17;;;;;;;3.42;100.00;100583.50;12211211;19;20011;-84
2023/01/28 00:35:35;;;;;;;5.10;2.72;;;;;;;3.39;100.00;100581.13;12222158;19;20010;-83
2023/01/28 00:39:37;;;;;;;6.23;2.57;;;;;;;3.37;100.00;100581.34;12186384;19;20399;-84
2023/01/28 00:43:41;;;;;;;4.15;2.25;;;;;;;3.37;100.00;100580.50;12211284;19;20011;-82
2023/01/28 00:47:44;;;;;;;5.22;2.42;;;;;;;3.38;100.00;100585.75;12209409;19;20030;-85
2023/01/28 00:51:47;;;;;;;5.15;2.55;;;;;;;3.37;100.00;100591.41;12185888;19;20014;-83
2023/01/28 00:55:49;;;;;;;4.93;2.47;;;;;;;3.38;100.00;100587.63;12206483;19;20007;-84
2023/01/28 00:59:51;;;;;;;5.57;2.65;;;;;;;3.40;100.00;100589.13;12209074;19;20030;-83
2023/01/28 01:04:01;;;;;;;4.47;2.10;;;;;;;3.42;100.00;100588.94;12186345;19;20382;-83
2023/01/28 01:08:04;;;;;;;5.03;2.42;;;;;;;3.33;100.00;100590.91;12204330;19;20749;-84
2023/01/28 01:12:06;;;;;;;4.70;2.28;;;;;;;3.31;100.00;100592.13;12186972;19;20046;-84
2023/01/28 01:16:10;;;;;;;6.43;2.47;;;;;;;3.33;100.00;100595.50;12200134;19;20010;-82
2023/01/28 01:20:21;;;;;;;4.63;2.40;;;;;;;3.29;100.00;100600.47;12207323;19;20002;-86
2023/01/28 01:24:28;;;;;;;5.83;1.87;;;;;;;3.27;100.00;100601.69;12186915;19;20006;-84
2023/01/28 01:28:30;;;;;;;5.55;2.42;;;;;;;3.25;100.00;100598.31;12205569;19;20070;-82
2023/01/28 01:32:36;;;;;;;5.07;2.78;;;;;;;3.23;100.00;100598.47;12207762;19;20003;-83
2023/01/28 01:36:37;;;;;;;5.28;2.78;;;;;;;3.19;100.00;100614.34;12183176;19;20010;-84
2023/01/28 01:40:39;;;;;;;6.03;3.20;;;;;;;3.21;100.00;100614.16;12202603;19;20057;-85
2023/01/28 01:45:06;;;;;;;6.10;2.90;;;;;;;3.25;100.00;100611.94;12207604;19;20002;-82
2023/01/28 01:49:18;;;;;;;5.13;3.10;;;;;;;3.19;100.00;100606.19;12184416;19;20007;-82
2023/01/28 01:53:22;;;;;;;5.35;2.83;;;;;;;3.19;100.00;100606.19;12204717;19;20713;-83
2023/01/28 01:57:32;;;;;;;5.68;2.53;;;;;;;3.13;100.00;100606.91;12180521;19;20010;-83
2023/01/28 02:01:34;;;;;;;6.78;2.25;;;;;;;3.22;100.00;100607.69;12205430;19;20625;-86
2023/01/28 02:05:37;;;;;;;5.10;2.85;;;;;;;3.26;100.00;100610.88;12204997;19;20010;-83
2023/01/28 02:09:40;;;;;;;4.80;2.33;;;;;;;3.20;100.00;100615.19;12181535;19;20006;-84
2023/01/28 02:13:45;;;;;;;;;;;;;;;3.22;100.00;100612.28;12205849;19;20392;-84
2023/01/28 02:17:49;;;;;;;4.40;2.10;;;;;;;3.25;100.00;100610.03;12201876;19;19902;-85
2023/01/28 02:22:09;;;;;;;3.58;2.03;;;;;;;3.23;100.00;100608.53;12182055;19;20010;-83
2023/01/28 02:26:34;;;;;;;3.65;1.95;;;;;;;3.24;100.00;100626.56;12207491;19;20878;-82
2023/01/28 02:30:41;;;;;;;3.78;1.58;;;;;;;3.17;100.00;100618.28;12181420;19;20093;-82
2023/01/28 02:34:59;;;;;;;3.50;1.70;;;;;;;3.19;100.00;100619.78;12196278;19;20342;-83
2023/01/28 02:39:09;;;;;;;3.92;1.80;;;;;;;3.19;100.00;100619.78;12181198;19;20013;-81
2023/01/28 02:43:13;;;;;;;4.78;2.10;;;;;;;3.15;100.00;100618.47;12201407;19;20007;-81
2023/01/28 02:52:01;;;;;;;5.65;2.70;;;;;;;3.03;100.00;100617.16;12177612;19;20078;-83
2023/01/28 02:56:28;;;;;;;6.35;2.95;;;;;;;2.97;100.00;100617.91;12200693;19;20022;-83
2023/01/28 03:00:44;;;;;;;7.78;2.90;;;;;;;2.99;100.00;100629.47;12173165;19;20820;-82
2023/01/28 03:05:06;;;;;;;8.55;3.10;;;;;;;2.89;100.00;100618.81;12201446;19;20043;-81
2023/01/28 03:09:25;;;;;;;6.47;3.08;;;;;;;2.80;100.00;100624.50;12178513;19;20523;-83
2023/01/28 03:40:13;;;;;;;4.43;2.45;;;;;;;2.74;100.00;100643.22;12266168;19;20011;-86
2023/01/28 03:48:37;;;;;;;4.25;2.30;;;;;;;2.74;100.00;100654.13;12189940;19;19999;-83
2023/01/28 03:52:41;;;;;;;3.88;2.05;;;;;;;2.77;100.00;100657.50;12207403;19;20006;-83
2023/01/28 03:56:56;;;;;;;6.25;2.53;;;;;;;2.79;100.00;100661.72;12200602;19;20082;-84
2023/01/28 04:01:04;;;;;;;4.75;2.40;;;;;;;2.77;100.00;100657.50;12247143;19;20034;-86
2023/01/28 04:05:11;;;;;;;5.90;2.75;;;;;;;2.77;100.00;100654.78;12271766;19;20037;-86
2023/01/28 04:09:20;;;;;;;4.68;2.63;;;;;;;2.77;100.00;100662.94;12200773;19;20059;-84
2023/01/28 04:13:28;;;;;;;5.00;3.28;;;;;;;2.66;100.00;100665.03;12213706;19;20006;-82
2023/01/28 04:17:30;;;;;;;5.43;3.10;;;;;;;2.63;100.00;100659.13;12212278;19;20010;-84
2023/01/28 04:21:32;;;;;;;5.75;2.97;;;;;;;2.59;100.00;100661.34;12189079;19;20003;-84
2023/01/28 04:25:35;;;;;;;5.70;3.20;;;;;;;2.61;100.00;100663.88;12211487;19;20020;-84
2023/01/28 04:29:41;;;;;;;5.10;3.03;;;;;;;2.61;100.00;100667.44;12206952;19;20353;-83
2023/01/28 04:34:05;;;;;;;10.98;3.65;;;;;;;2.60;100.00;100671.19;12189443;19;20039;-84
2023/01/28 04:38:13;;;;;;;5.65;3.05;;;;;;;2.59;100.00;100672.22;12209323;19;19998;-83
2023/01/28 04:42:21;;;;;;;7.38;3.83;;;;;;;2.60;100.00;100667.63;12190893;19;20010;-83
2023/01/28 04:46:37;;;;;;;5.63;3.20;;;;;;;2.64;100.00;100668.97;12211572;19;20035;-84
2023/01/28 04:50:49;;;;;;;7.68;3.53;;;;;;;2.58;100.00;100669.66;12208830;19;20010;-83
2023/01/28 04:55:14;;;;;;;6.57;3.30;;;;;;;2.59;100.00;100666.78;12189221;19;20042;-82
2023/01/28 04:59:17;;;;;;;8.40;3.90;;;;;;;2.57;100.00;100668.81;12208838;19;20040;-82
2023/01/28 05:03:18;;;;;;;8.93;3.67;;;;;;;2.53;100.00;100663.91;12187553;19;20020;-82
2023/01/28 05:07:20;;;;;;;6.43;3.80;;;;;;;2.51;100.00;100675.81;12209047;19;20011;-83
2023/01/28 05:11:23;;;;;;;6.40;3.30;;;;;;;2.45;100.00;100681.13;12207340;19;20028;-84
2023/01/28 05:15:29;;;;;;;6.50;3.47;;;;;;;2.38;100.00;100680.97;12187859;19;20003;-83
2023/01/28 05:19:31;;;;;;;7.60;3.67;;;;;;;2.38;100.00;100683.69;12208258;19;20022;-81
2023/01/28 05:23:35;;;;;;;7.18;3.30;;;;;;;2.41;100.00;100685.19;12206287;19;20023;-83
2023/01/28 05:27:37;;;;;;;6.32;3.28;;;;;;;2.38;100.00;100685.56;12183937;19;20011;-82
2023/01/28 05:31:38;;;;;;;5.88;3.80;;;;;;;2.39;100.00;100684.53;12203865;19;20002;-82
2023/01/28 05:35:42;;;;;;;7.25;3.38;;;;;;;2.40;100.00;100688.94;12206893;19;20011;-81
2023/01/28 05:39:43;;;;;;;5.82;3.22;;;;;;;2.38;100.00;100697.31;12183049;19;20042;-84
2023/01/28 05:43:45;;;;;;;10.43;3.30;;;;;;;2.38;100.00;100710.03;12208483;19;20472;-82
2023/01/28 05:47:59;;;;;;;6.22;3.08;;;;;;;2.36;100.00;100709.38;12185973;19;20447;-81
2023/01/28 05:52:15;;;;;;;9.70;3.33;;;;;;;2.35;100.00;100710.38;12211702;19;20027;-82
2023/01/28 05:56:17;;;;;;;5.38;2.83;;;;;;;2.38;100.00;100708.19;12206037;19;20035;-84
2023/01/28 06:00:19;;;;;;;5.32;2.88;;;;;;;2.39;100.00;100722.63;12183326;19;19999;-85
2023/01/28 06:04:20;;;;;;;5.67;2.47;;;;;;;2.45;100.00;100727.38;12204789;19;20014;-84
2023/01/28 06:08:23;;;;;;;8.52;3.45;;;;;;;2.40;100.00;100733.31;12203093;19;20491;-83
2023/01/28 06:12:24;;;;;;;5.55;3.05;;;;;;;2.37;100.00;100736.38;12182727;19;20014;-82
2023/01/28 06:17:01;;;;;;;7.63;3.30;;;;;;;2.45;100.00;100743.69;12198689;19;20027;-82
2023/01/28 06:21:12;;;;;;;6.13;2.88;;;;;;;2.47;100.00;100749.81;12183973;19;20024;-83
2023/01/28 06:25:14;;;;;;;5.25;3.03;;;;;;;2.40;100.00;100751.50;12202373;19;20002;-82
2023/01/28 06:29:16;;;;;;;6.28;2.83;;;;;;;2.42;100.00;100750.31;12204546;19;20026;-81
2023/01/28 06:33:19;;;;;;;5.82;2.58;;;;;;;2.48;100.00;100759.66;12180308;19;20043;-84
2023/01/28 06:37:20;;;;;;;5.60;2.85;;;;;;;2.49;100.00;100759.47;12205998;19;20003;-80
2023/01/28 06:41:22;;;;;;;8.20;2.77;;;;;;;2.50;100.00;100765.78;12207336;19;20042;-83
2023/01/28 06:45:25;;;;;;;4.80;2.45;;;;;;;2.50;100.00;100768.50;12181742;19;20038;-83
2023/01/28 06:49:26;;;;;;;4.95;2.60;;;;;;;2.45;100.00;100768.19;12203813;19;20039;-79
2023/01/28 06:53:28;;;;;;;8.50;2.65;;;;;;;2.46;100.00;100772.59;12202444;19;20882;-81
2023/01/28 06:57:30;;;;;;;5.65;2.88;;;;;;;2.55;100.00;100784.31;12182790;19;20476;-82
2023/01/28 07:01:32;;;;;;;6.47;2.80;;;;;;;2.59;100.00;100783.78;12209153;19;20003;-84
2023/01/28 07:05:34;;;;;;;5.83;2.57;;;;;;;2.55;100.00;100782.41;12204720;19;20543;-83
2023/01/28 07:09:35;;;;;;;3.88;2.35;;;;;;;2.58;100.00;100790.22;12180113;19;20027;-83
2023/01/28 07:13:37;;;;;;;8.25;2.60;;;;;;;2.60;100.00;100785.47;12200212;19;20026;-82
2023/01/28 07:17:42;;;;;;;7.07;2.50;;;;;;;2.61;100.00;100795.31;12199957;19;20003;-81
2023/01/28 07:21:43;;;;;;;7.55;3.08;;;;;;;2.59;100.00;100791.97;12179283;19;20480;-83
2023/01/28 07:25:45;;;;;;;6.35;4.07;;;;;;;2.56;100.00;100786.84;12201572;19;20393;-81
2023/01/28 07:29:47;;;;;;;6.90;3.28;;;;;;;2.55;100.00;100787.88;12199188;19;20006;-83
2023/01/28 07:33:48;;;;;;;6.38;4.45;;;;;;;2.57;100.00;100794.00;12181212;19;20015;-82
2023/01/28 07:37:54;;;;;;;5.43;3.83;;;;;;;2.61;100.00;100799.94;12203235;19;20007;-82
2023/01/28 07:41:55;;;;;;;6.15;3.70;;;;;;;2.72;100.00;100794.97;12179949;19;20026;-84
2023/01/28 07:46:10;;;;;;;6.82;2.83;;;;;;;2.83;100.00;100798.34;12199425;19;20035;-82
2023/01/28 07:50:12;;;;;;;4.30;2.22;;;;;;;2.83;100.00;100799.19;12201263;19;20671;-83
2023/01/28 07:54:14;;;;;;;5.25;2.80;;;;;;;2.93;100.00;100809.88;12178128;19;20025;-81
2023/01/28 07:58:16;;;;;;;6.20;2.30;;;;;;;2.95;100.00;100811.41;12198997;19;20050;-81
2023/01/28 08:02:18;;;;;;;5.45;2.92;;;;;;;3.01;100.00;100817.19;12196905;19;20015;-83
2023/01/28 08:06:19;;;;;;;8.93;3.25;;;;;;;3.07;100.00;100814.59;12169959;19;20034;-86
2023/01/28 08:10:21;;;;;;;6.82;3.42;;;;;;;3.08;100.00;100818.16;12172093;19;20011;-81
2023/01/28 08:14:23;;;;;;;5.88;3.28;;;;;;;3.10;100.00;100816.97;12202854;19;20034;-82
2023/01/28 08:18:24;;;;;;;4.22;2.22;;;;;;;3.17;100.00;100826.09;12180429;19;20095;-82
2023/01/28 08:22:27;;;;;;;4.57;2.65;;;;;;;3.24;100.00;100823.53;12201515;19;20730;-81
2023/01/28 08:26:28;;;;;;;5.40;2.97;;;;;;;3.35;100.00;100830.47;12203897;19;20047;-83
2023/01/28 08:30:30;;;;;;;4.63;2.78;;;;;;;3.45;99.97;100841.13;12177692;19;20007;-83
2023/01/28 08:34:32;;;;;;;4.43;2.53;;;;;;;3.47;99.25;100839.94;12202281;19;20504;-83
2023/01/28 08:38:33;;;;;;;4.38;2.40;;;;;;;3.39;97.75;100837.25;12209377;19;20028;-81
2023/01/28 08:43:03;;;;;;;8.45;3.78;;;;;;;3.46;98.75;100832.78;12206393;19;20023;-83
2023/01/28 08:47:07;;;;;;;6.65;2.63;;;;;;;3.48;97.98;100841.66;12277728;19;20089;-85
2023/01/28 08:51:09;;;;;;;5.28;2.60;;;;;;;3.38;96.33;100841.84;12223943;19;20095;-83
2023/01/28 08:55:11;;;;;;;5.90;2.90;;;;;;;3.48;96.74;100841.66;12212249;19;20010;-83
2023/01/28 08:59:13;;;;;;;12.60;5.75;;;;;;;3.46;95.89;100838.25;12217611;19;20002;-84
2023/01/28 09:03:15;;;;;;;4.33;2.83;;;;;;;3.58;96.09;100844.97;12197761;19;20022;-83
2023/01/28 09:07:17;;;;;;;3.42;2.30;;;;;;;3.67;95.66;100847.66;12224424;19;20011;-83
2023/01/28 09:11:20;;;;;;;5.18;2.42;;;;;;;3.65;95.98;100856.00;12244943;19;20053;-84
2023/01/28 09:15:21;;;;;;;5.35;2.10;;;;;;;3.71;95.95;100863.47;12246980;19;20048;-84
2023/01/28 09:19:24;;;;;;;4.38;2.20;;;;;;;3.72;94.66;100858.88;12222133;19;20019;-83
2023/01/28 09:23:25;;;;;;;3.90;2.30;;;;;;;3.80;93.98;100861.53;12215417;19;20011;-83
2023/01/28 09:27:27;;;;;;;4.20;2.33;;;;;;;3.84;93.46;100858.28;12190949;19;20043;-85
2023/01/28 09:31:29;;;;;;;26.42;10.27;;;;;;;3.79;92.38;100865.31;12211024;19;20094;-82
2023/01/28 09:35:32;;;;;;;32.95;13.73;;;;;;;3.85;92.03;100872.78;12209981;19;20008;-83
2023/01/28 09:39:34;;;;;;;7.05;4.10;;;;;;;3.93;91.56;100872.72;12187597;19;20492;-84
2023/01/28 09:44:10;;;;;;;15.27;7.15;;;;;;;3.88;90.05;100872.41;12212023;19;20495;-82
2023/01/28 09:48:17;;;;;;;6.93;3.65;;;;;;;4.06;91.07;100869.38;12195639;19;20051;-83
2023/01/28 09:52:21;;;;;;;3.97;2.25;;;;;;;4.05;86.88;100876.72;12208984;19;20003;-83
2023/01/28 09:56:31;;;;;;;10.63;5.85;;;;;;;4.16;88.69;100877.31;12207627;19;20022;-83
2023/01/28 10:01:21;;;;;;;4.70;2.72;;;;;;;4.26;87.62;100872.50;12183283;19;20079;-80
2023/01/28 10:05:34;;;;;;;6.00;2.65;;;;;;;4.08;86.39;100875.53;12207667;19;20017;-85
2023/01/28 10:10:01;;;;;;;6.03;2.67;;;;;;;3.96;86.58;100890.59;12181811;19;20397;-81
2023/01/28 10:14:16;;;;;;;4.10;2.35;;;;;;;4.11;88.04;100892.38;12203449;19;20007;-82
2023/01/28 10:18:29;;;;;;;6.85;2.40;;;;;;;4.40;88.14;100885.31;12185746;19;20018;-82
2023/01/28 10:22:35;;;;;;;;;;;;;;;4.57;86.65;100895.06;12204481;19;20011;-82
2023/01/28 10:26:42;;;;;;;4.65;2.13;;;;;;;4.67;85.30;100889.38;12206484;19;19918;-81
2023/01/28 10:30:46;;;;;;;5.03;2.60;;;;;;;4.73;84.64;100885.00;12183287;19;20099;-82
2023/01/28 10:34:48;;;;;;;4.20;2.45;;;;;;;4.85;84.25;100894.47;12207517;19;20077;-82
2023/01/28 10:38:50;;;;;;;5.18;2.58;;;;;;;4.81;82.35;100887.69;12204908;19;20002;-82
2023/01/28 10:42:52;;;;;;;6.55;2.85;;;;;;;4.76;80.74;100893.72;12184381;19;20018;-80
2023/01/28 10:46:58;;;;;;;6.20;2.95;;;;;;;4.95;81.83;100894.19;12205054;19;20003;-82
2023/01/28 10:51:06;;;;;;;6.15;2.75;;;;;;;4.98;80.56;100886.47;12180289;19;20035;-82
2023/01/28 10:55:13;;;;;;;8.63;4.00;;;;;;;4.99;80.20;100890.91;12205502;19;20006;-84
2023/01/28 10:59:31;;;;;;;7.28;3.88;;;;;;;5.10;80.16;100894.22;12204190;19;20035;-84
2023/01/28 11:03:35;;;;;;;6.85;2.78;;;;;;;5.31;80.42;100891.56;12181678;19;20024;-83
2023/01/28 11:07:37;;;;;;;5.40;2.33;;;;;;;5.59;80.40;100896.34;12204579;19;20040;-81
2023/01/28 11:11:39;;;;;;;5.63;3.03;;;;;;;5.77;79.11;100896.81;12203096;19;20548;-80
2023/01/28 11:16:16;;;;;;;8.00;3.47;;;;;;;5.84;76.98;100900.47;12179926;19;20014;-80
2023/01/28 11:20:23;;;;;;;5.82;2.75;;;;;;;5.64;76.52;100897.47;12199416;19;20006;-83
2023/01/28 11:24:32;;;;;;;5.53;2.90;;;;;;;5.39;75.02;100894.22;12179690;19;20002;-82
2023/01/28 11:28:39;;;;;;;5.15;2.83;;;;;;;5.13;75.70;100899.31;12204008;19;20006;-82
2023/01/28 11:32:41;;;;;;;6.57;3.15;;;;;;;4.97;76.27;100900.34;12202778;19;20468;-80
2023/01/28 11:37:12;;;;;;;6.88;3.08;;;;;;;4.95;76.53;100903.25;12184892;19;20003;-80
2023/01/28 11:41:14;;;;;;;8.15;4.13;;;;;;;5.01;78.69;100897.03;12201970;19;20010;-81
2023/01/28 11:45:32;;;;;;;6.00;2.90;;;;;;;5.19;77.42;100901.28;12176493;19;20006;-80
2023/01/28 11:49:34;;;;;;;7.38;4.07;;;;;;;5.14;76.25;100887.31;12199040;19;20386;-84
2023/01/28 11:54:21;;;;;;;4.78;2.55;;;;;;;5.09;75.16;100882.44;12203621;19;20026;-81
2023/01/28 11:58:38;;;;;;;5.05;2.25;;;;;;;5.06;74.01;100885.56;12097496;19;2005073;-80
2023/01/28 12:02:54;;;;;;;4.68;2.72;;;;;;;4.93;75.10;100888.91;12204905;19;20006;-82
2023/01/28 12:07:21;;;;;;;3.92;2.42;;;;;;;4.65;75.65;100885.13;12181620;19;20697;-81
2023/01/28 12:16:42;;;;;;;4.82;2.60;;;;;;;4.31;76.80;100884.56;12188490;19;20488;-82
2023/01/28 12:21:07;;;;;;;3.85;2.30;;;;;;;4.23;77.21;100867.41;12208773;19;20010;-84
2023/01/28 12:25:20;;;;;;;4.78;2.72;;;;;;;4.36;78.14;100873.06;12190775;19;20010;-81
2023/01/28 12:29:40;;;;;;;4.78;2.58;;;;;;;4.44;77.53;100872.16;12210210;19;20002;-84
2023/01/28 12:34:10;;;;;;;4.13;2.13;;;;;;;4.44;77.02;100881.19;12185098;19;20010;-85
2023/01/28 12:38:15;;;;;;;5.70;2.42;;;;;;;4.33;77.25;100870.72;12209679;19;20011;-85
2023/01/28 12:42:34;;;;;;;4.75;3.00;;;;;;;4.32;76.65;100869.88;12191459;19;20014;-81
2023/01/28 12:46:51;;;;;;;4.53;2.45;;;;;;;4.26;76.83;100869.75;12213462;19;20109;-83
2023/01/28 12:51:01;;;;;;;5.43;2.38;;;;;;;4.32;77.34;100877.22;12209735;19;20007;-82
2023/01/28 12:55:15;;;;;;;4.18;2.20;;;;;;;4.34;75.80;100867.81;12210029;19;20026;-81
2023/01/28 12:59:47;;;;;;;5.00;2.55;;;;;;;4.27;76.37;100860.53;12215407;19;20034;-82
2023/01/28 13:03:57;;;;;;;6.50;2.90;;;;;;;4.08;76.31;100868.19;12191990;19;20166;-82
2023/01/28 13:08:04;;;;;;;4.18;2.63;;;;;;;3.98;76.72;100870.28;12211917;19;20031;-85
2023/01/28 13:12:06;;;;;;;11.02;5.00;;;;;;;3.96;76.96;100866.91;12190592;19;20097;-83
2023/01/28 13:16:09;;;;;;;10.90;4.87;;;;;;;3.83;76.75;100862.03;12212494;19;20002;-84
2023/01/28 13:20:15;;;;;;;7.00;3.90;;;;;;;3.69;77.00;100876.44;12216527;19;20263;-83
2023/01/28 13:24:22;;;;;;;5.20;2.55;;;;;;;3.56;77.69;100877.00;12203298;19;20006;-84
2023/01/28 13:28:27;;;;;;;4.10;2.60;;;;;;;3.47;77.65;100879.97;12217628;19;20118;-85
2023/01/28 13:32:32;;;;;;;14.27;5.15;;;;;;;3.41;78.69;100890.53;12223289;19;20038;-83
2023/01/28 13:36:43;;;;;;;28.95;10.80;;;;;;;3.33;78.95;100897.88;12229264;19;20003;-84
2023/01/28 13:40:59;;;;;;;10.20;4.32;;;;;;;3.26;79.65;100903.19;12266802;19;19995;-87
2023/01/28 13:45:19;;;;;;;8.13;4.18;;;;;;;3.26;79.46;100907.81;12192072;19;20622;-82
2023/01/28 13:49:43;;;;;;;5.85;2.60;;;;;;;3.22;79.32;100912.75;12211330;19;20006;-81
2023/01/28 13:53:52;;;;;;;4.22;2.45;;;;;;;3.13;78.76;100911.94;12211578;19;20034;-84
2023/01/28 13:58:24;;;;;;;6.55;3.65;;;;;;;3.11;79.23;100922.13;12190997;19;20022;-82
2023/01/28 14:02:47;;;;;;;6.80;3.65;;;;;;;3.05;79.66;100911.94;12213341;19;20034;-84
2023/01/28 14:07:08;;;;;;;9.48;4.28;;;;;;;3.13;79.66;100925.53;12194302;19;20035;-83
2023/01/28 14:11:47;;;;;;;6.93;3.65;;;;;;;3.10;78.68;100912.28;12232808;19;19999;-84
2023/01/28 14:16:13;;;;;;;6.00;3.35;;;;;;;3.05;78.36;100935.59;12206364;19;20041;-84
2023/01/28 14:20:21;;;;;;;4.70;2.53;;;;;;;3.08;78.24;100935.25;12212494;19;19998;-82
2023/01/28 14:24:23;;;;;;;4.75;2.28;;;;;;;2.97;75.75;100941.91;12183577;19;20082;-84
2023/01/28 14:28:56;;;;;;;4.57;2.60;;;;;;;2.91;75.94;100942.59;12217821;19;20013;-84
2023/01/28 14:32:58;;;;;;;4.60;2.05;;;;;;;2.94;76.11;100944.97;12191840;19;20357;-82
2023/01/28 14:37:12;;;;;;;4.88;2.83;;;;;;;2.91;75.76;100939.88;12216895;19;20031;-85
2023/01/28 14:41:25;;;;;;;4.85;2.63;;;;;;;2.87;75.97;100939.38;12249188;19;20050;-83
2023/01/28 14:45:40;;;;;;;;;;;;;;;2.84;75.10;100941.59;12233074;19;20006;-84
2023/01/28 14:49:51;;;;;;;4.57;2.65;;;;;;;2.91;75.93;100948.03;12222407;19;20334;-82
2023/01/28 14:53:52;;;;;;;4.72;2.63;;;;;;;2.87;74.80;100949.41;12211732;19;20014;-81
2023/01/28 14:58:05;;;;;;;5.32;2.63;;;;;;;2.85;72.73;100954.16;12210401;19;20363;-82
2023/01/28 15:02:24;;;;;;;5.28;2.65;;;;;;;2.63;71.67;100966.59;12211632;19;20019;-84
2023/01/28 15:06:34;;;;;;;5.97;2.55;;;;;;;2.59;72.29;100948.91;12188083;19;20445;-84
2023/01/28 15:10:37;;;;;;;4.75;2.55;;;;;;;2.65;71.61;100950.97;12206935;19;20002;-83
2023/01/28 15:14:39;;;;;;;5.35;2.60;;;;;;;2.61;70.34;100930.53;12207765;19;20114;-83
2023/01/28 15:18:43;;;;;;;4.10;2.17;;;;;;;2.62;70.89;100933.09;12185697;19;20027;-79
2023/01/28 15:22:45;;;;;;;5.25;2.20;;;;;;;2.70;71.09;100930.34;12205348;19;20010;-85
2023/01/28 15:26:47;;;;;;;5.78;2.53;;;;;;;2.69;71.11;100930.53;12206566;19;20426;-83
2023/01/28 15:30:49;;;;;;;5.55;2.72;;;;;;;2.69;71.56;100923.22;12182312;19;20010;-82
2023/01/28 15:34:50;;;;;;;6.32;3.10;;;;;;;2.74;72.03;100931.75;12203867;19;20081;-82
2023/01/28 15:38:53;;;;;;;5.18;2.50;;;;;;;2.76;71.81;100933.44;12207127;19;20378;-82
2023/01/28 15:42:57;;;;;;;3.58;2.58;;;;;;;2.76;72.25;100949.75;12183194;19;20010;-83
2023/01/28 15:47:02;;;;;;;5.40;3.10;;;;;;;2.74;72.15;100942.63;12205135;19;20013;-82
2023/01/28 15:51:17;;;;;;;5.18;2.88;;;;;;;2.64;70.97;100928.31;12193517;19;20086;-83
2023/01/28 15:55:39;;;;;;;4.30;2.15;;;;;;;2.61;72.57;100925.09;12221412;19;20718;-84
2023/01/28 15:59:42;;;;;;;7.70;2.83;;;;;;;2.46;71.66;100919.50;12211326;19;21587;-83
2023/01/28 16:03:46;;;;;;;7.00;3.08;;;;;;;2.33;70.94;100922.72;12189140;19;20020;-84
2023/01/28 16:07:48;;;;;;;7.68;3.10;;;;;;;2.28;72.31;100936.81;12207754;19;20056;-83
2023/01/28 16:11:50;;;;;;;5.72;2.75;;;;;;;2.32;72.51;100939.19;12203464;19;21316;-82
2023/01/28 16:15:55;;;;;;;5.45;3.00;;;;;;;2.21;72.43;100945.84;12183449;19;20015;-82
2023/01/28 16:20:02;;;;;;;7.85;3.10;;;;;;;2.22;72.61;100955.69;12201258;19;20068;-82
2023/01/28 16:24:25;;;;;;;5.55;3.13;;;;;;;2.27;73.52;100956.88;12185848;19;20006;-84
2023/01/28 16:28:28;;;;;;;6.70;2.90;;;;;;;2.29;73.25;100954.00;12224097;19;20007;-83
2023/01/28 16:32:36;;;;;;;6.35;3.58;;;;;;;2.27;73.02;100959.59;12187834;19;20007;-84
2023/01/28 16:36:37;;;;;;;16.10;6.53;;;;;;;2.24;72.65;100957.22;12216429;19;20514;-84
2023/01/28 16:40:39;;;;;;;6.47;3.85;;;;;;;2.20;72.51;100964.03;12249855;19;20563;-83
2023/01/28 16:44:41;;;;;;;8.45;4.00;;;;;;;2.13;72.20;100965.69;12191335;19;20093;-82
2023/01/28 16:48:43;;;;;;;8.48;4.63;;;;;;;2.11;73.33;100972.31;12207264;19;20309;-83
2023/01/28 16:52:48;;;;;;;11.23;5.95;;;;;;;2.12;73.63;100982.19;12205809;19;20027;-84
2023/01/28 16:56:50;;;;;;;13.00;6.50;;;;;;;2.07;74.38;100979.94;12194467;19;20020;-84
2023/01/28 17:00:52;;;;;;;42.17;15.63;;;;;;;2.08;74.48;100976.19;12209854;19;20070;-83
2023/01/28 17:04:54;;;;;;;28.60;11.90;;;;;;;2.11;74.24;100977.75;12204381;19;21312;-83
2023/01/28 17:08:56;;;;;;;9.25;4.78;;;;;;;2.12;74.45;100976.75;12180330;19;20006;-82
2023/01/28 17:12:57;;;;;;;7.63;3.80;;;;;;;2.10;74.65;100976.06;12206356;19;20030;-82
2023/01/28 17:16:59;;;;;;;8.23;3.85;;;;;;;2.07;74.50;100979.09;12207383;19;20015;-82
2023/01/28 17:21:04;;;;;;;9.57;4.63;;;;;;;1.99;73.44;100988.06;12182492;19;20034;-82
2023/01/28 17:25:06;;;;;;;8.43;4.85;;;;;;;1.96;74.16;100982.97;12203694;19;20031;-82
2023/01/28 17:29:07;;;;;;;18.00;8.90;;;;;;;1.95;73.72;100984.84;12199860;19;20006;-82
2023/01/28 17:33:09;;;;;;;9.15;5.47;;;;;;;1.96;74.39;101005.59;12182320;19;20010;-82
2023/01/28 17:37:11;;;;;;;9.27;4.80;;;;;;;1.91;74.37;101013.38;12206770;19;20010;-82
2023/01/28 17:41:13;;;;;;;29.02;14.40;;;;;;;1.95;74.17;101022.91;12203018;19;20006;-84
2023/01/28 17:45:15;;;;;;;12.85;6.35;;;;;;;1.95;74.05;101027.50;12183731;19;19998;-82
2023/01/28 17:49:18;;;;;;;7.72;4.10;;;;;;;1.94;75.21;101021.22;12202570;19;20006;-83
2023/01/28 17:53:19;;;;;;;7.50;3.67;;;;;;;1.95;75.05;101013.91;12200144;19;20031;-83
2023/01/28 17:57:22;;;;;;;7.35;3.88;;;;;;;1.97;75.27;101026.31;12183802;19;20086;-82
2023/01/28 18:01:25;;;;;;;6.32;3.42;;;;;;;1.99;74.79;101017.97;12214198;19;20010;-82
2023/01/28 18:05:27;;;;;;;7.75;3.70;;;;;;;2.00;75.06;101027.84;12215172;19;20058;-82
2023/01/28 18:09:28;;;;;;;7.05;3.97;;;;;;;1.94;73.96;101029.38;12187779;19;20027;-83
2023/01/28 18:13:30;;;;;;;7.20;3.53;;;;;;;1.93;73.99;101038.50;12202552;19;19999;-82
2023/01/28 18:17:31;;;;;;;7.65;3.53;;;;;;;1.96;74.53;101040.06;12184448;19;20010;-83
2023/01/28 18:21:37;;;;;;;13.20;5.65;;;;;;;1.91;74.60;101037.84;12209801;19;20006;-87
2023/01/28 18:25:56;;;;;;;20.55;8.82;;;;;;;1.90;74.93;101047.00;12230522;19;20049;-84
2023/01/28 18:29:57;;;;;;;11.77;6.15;;;;;;;1.90;74.91;101046.16;12223154;19;20101;-82
2023/01/28 18:33:59;;;;;;;8.25;4.85;;;;;;;1.85;74.84;101040.38;12201520;19;20006;-83
2023/01/28 18:38:01;;;;;;;8.73;4.70;;;;;;;1.76;74.78;101043.03;12203745;19;20031;-83
2023/01/28 18:42:03;;;;;;;8.18;4.10;;;;;;;1.71;75.53;101039.09;12183895;19;20002;-82
2023/01/28 18:46:15;;;;;;;8.43;5.35;;;;;;;1.69;75.50;101044.69;12206015;19;20006;-83
2023/01/28 18:50:17;;;;;;;9.33;4.67;;;;;;;1.63;76.01;101061.63;12204213;19;20034;-82
2023/01/28 18:54:19;;;;;;;13.48;7.13;;;;;;;1.64;76.40;101082.38;12179123;19;20027;-83
2023/01/28 18:58:20;;;;;;;7.30;4.43;;;;;;;1.63;76.56;101083.38;12212037;19;20025;-83
2023/01/28 19:02:22;;;;;;;9.70;4.65;;;;;;;1.67;76.59;101089.38;12213883;19;20014;-82
2023/01/28 19:06:25;;;;;;;12.75;5.68;;;;;;;1.66;74.53;101084.94;12189466;19;20007;-83
2023/01/28 19:10:27;;;;;;;9.57;4.68;;;;;;;1.67;75.44;101081.22;12209528;19;20009;-82
2023/01/28 19:14:28;;;;;;;11.82;4.70;;;;;;;1.59;74.42;101079.28;12215022;19;20011;-82
2023/01/28 19:18:30;;;;;;;11.77;4.60;;;;;;;1.62;74.98;101087.13;12192783;19;20027;-82
2023/01/28 19:22:32;;;;;;;7.80;3.85;;;;;;;1.70;75.84;101092.59;12211381;19;20006;-82
2023/01/28 19:26:34;;;;;;;8.57;3.88;;;;;;;1.75;76.13;101086.69;12190443;19;20002;-83
2023/01/28 19:30:36;;;;;;;7.68;4.20;;;;;;;1.74;75.31;101096.69;12210750;19;20095;-83
2023/01/28 19:34:37;;;;;;;10.57;4.40;;;;;;;1.76;75.51;101093.84;12215404;19;20019;-82
2023/01/28 19:38:40;;;;;;;8.57;4.18;;;;;;;1.79;75.65;101104.38;12197623;19;20142;-82
2023/01/28 19:42:41;;;;;;;7.60;4.20;;;;;;;1.81;75.50;101099.63;12216757;19;20006;-82
2023/01/28 19:46:43;;;;;;;10.98;4.82;;;;;;;1.80;75.13;101100.63;12227830;19;20385;-83